createdAt,value
2023-12-18T00:00:15.801Z,101241.69
2023-12-18T00:02:46.273Z,101226.38
2023-12-18T00:05:14.165Z,101228.97
2023-12-18T00:07:42.481Z,101237.53
2023-12-18T00:10:10.984Z,101220.50
2023-12-18T00:12:39.309Z,101218.78
2023-12-18T00:15:09.308Z,101214.44
2023-12-18T00:17:37.451Z,101214.50
2023-12-18T00:20:07.989Z,101212.75
2023-12-18T00:22:36.028Z,101213.69
2023-12-18T00:25:03.897Z,101201.78
2023-12-18T00:27:31.838Z,101222.25
2023-12-18T00:29:59.887Z,101215.50
2023-12-18T00:32:27.851Z,101214.66
2023-12-18T00:34:55.938Z,101224.09
2023-12-18T00:37:30.903Z,101216.47
2023-12-18T00:39:58.746Z,101203.69
2023-12-18T00:42:27.015Z,101213.91
2023-12-18T00:44:55.342Z,101217.28
2023-12-18T00:47:23.377Z,101213.09
2023-12-18T00:49:51.672Z,101221.63
2023-12-18T00:52:19.740Z,101225.94
2023-12-18T00:54:49.028Z,101216.53
2023-12-18T00:57:16.956Z,101215.72
2023-12-18T00:59:44.954Z,101213.22
2023-12-18T01:02:12.814Z,101217.56
2023-12-18T01:04:40.749Z,101208.25
2023-12-18T01:07:08.618Z,101205.69
2023-12-18T01:09:36.525Z,101209.97
2023-12-18T01:12:06.335Z,101209.09
2023-12-18T01:14:34.291Z,101217.66
2023-12-18T01:17:02.627Z,101198.97
2023-12-18T01:19:30.636Z,101202.38
2023-12-18T01:21:58.499Z,101198.13
2023-12-18T01:24:26.394Z,101190.50
2023-12-18T01:26:54.302Z,101198.22
2023-12-18T01:29:23.591Z,101184.56
2023-12-18T01:31:51.623Z,101196.56
2023-12-18T01:34:19.736Z,101194.81
2023-12-18T01:36:47.799Z,101189.75
2023-12-18T01:39:16.230Z,101192.31
2023-12-18T01:41:44.089Z,101189.78
2023-12-18T01:44:11.922Z,101182.09
2023-12-18T01:46:41.472Z,101176.13
2023-12-18T01:49:10.978Z,101181.31
2023-12-18T01:51:39.079Z,101184.72
2023-12-18T01:54:08.501Z,101176.22
2023-12-18T01:56:36.857Z,101194.03
2023-12-18T01:59:05.408Z,101188.16
2023-12-18T02:01:33.927Z,101189.84
2023-12-18T02:04:03.436Z,101188.91
2023-12-18T02:06:31.653Z,101191.44
2023-12-18T02:08:59.647Z,101188.03
2023-12-18T02:11:28.173Z,101185.47
2023-12-18T02:13:56.201Z,101184.56
2023-12-18T02:16:24.345Z,101180.34
2023-12-18T02:18:52.423Z,101182.00
2023-12-18T02:21:23.076Z,101179.47
2023-12-18T02:23:53.082Z,101178.59
2023-12-18T02:26:21.409Z,101184.63
2023-12-18T02:28:49.339Z,101170.91
2023-12-18T02:31:19.511Z,101178.59
2023-12-18T02:33:50.196Z,101175.16
2023-12-18T02:36:19.661Z,101177.72
2023-12-18T02:38:47.507Z,101176.84
2023-12-18T02:41:16.791Z,101177.66
2023-12-18T02:43:44.698Z,101183.59
2023-12-18T02:46:12.557Z,101180.09
2023-12-18T02:48:41.546Z,101183.59
2023-12-18T02:51:09.463Z,101176.72
2023-12-18T02:53:38.029Z,101173.38
2023-12-18T02:56:06.733Z,101176.78
2023-12-18T02:58:35.963Z,101181.91
2023-12-18T03:01:03.891Z,101175.06
2023-12-18T03:03:31.814Z,101181.91
2023-12-18T03:05:59.744Z,101182.69
2023-12-18T03:08:27.678Z,101172.47
2023-12-18T03:10:55.616Z,101176.78
2023-12-18T03:13:23.547Z,101184.47
2023-12-18T03:15:53.082Z,101184.44
2023-12-18T03:18:21.148Z,101185.31
2023-12-18T03:20:50.482Z,101180.22
2023-12-18T03:23:18.352Z,101188.75
2023-12-18T03:25:46.344Z,101188.81
2023-12-18T03:28:14.793Z,101187.13
2023-12-18T03:30:43.001Z,101194.78
2023-12-18T03:33:13.697Z,101186.25
2023-12-18T03:35:41.737Z,101189.66
2023-12-18T03:38:09.746Z,101180.34
2023-12-18T03:40:37.632Z,101184.56
2023-12-18T03:43:05.996Z,101191.47
2023-12-18T03:45:33.949Z,101196.59
2023-12-18T03:48:01.995Z,101191.44
2023-12-18T03:50:31.225Z,101197.44
2023-12-18T03:52:59.084Z,101194.03
2023-12-18T03:55:26.961Z,101182.94
2023-12-18T03:57:55.215Z,101195.72
2023-12-18T04:00:23.299Z,101198.28
2023-12-18T04:02:51.280Z,101188.03
2023-12-18T04:05:19.436Z,101185.41
2023-12-18T04:07:48.773Z,101186.28
2023-12-18T04:10:16.688Z,101182.84
2023-12-18T04:12:44.615Z,101182.84
2023-12-18T04:15:12.948Z,101171.75
2023-12-18T04:17:41.160Z,101175.16
2023-12-18T04:20:10.231Z,101172.59
2023-12-18T04:22:38.092Z,101179.44
2023-12-18T04:25:08.631Z,101171.69
2023-12-18T04:27:36.551Z,101184.47
2023-12-18T04:30:04.991Z,101177.72
2023-12-18T04:32:32.917Z,101182.00
2023-12-18T04:35:01.596Z,101177.72
2023-12-18T04:37:29.530Z,101180.22
2023-12-18T04:39:57.468Z,101181.91
2023-12-18T04:42:26.757Z,101184.44
2023-12-18T04:44:54.608Z,101183.63
2023-12-18T04:47:22.524Z,101185.41
2023-12-18T04:49:50.509Z,101182.84
2023-12-18T04:52:18.418Z,101189.69
2023-12-18T04:54:46.798Z,101195.72
2023-12-18T04:57:14.810Z,101189.75
2023-12-18T04:59:44.069Z,101197.44
2023-12-18T05:02:11.992Z,101194.88
2023-12-18T05:04:39.870Z,101197.44
2023-12-18T05:07:09.516Z,101192.31
2023-12-18T05:09:37.533Z,101197.44
2023-12-18T05:12:06.455Z,101191.41
2023-12-18T05:14:34.690Z,101185.50
2023-12-18T05:17:04.036Z,101178.66
2023-12-18T05:19:33.413Z,101182.06
2023-12-18T05:22:01.337Z,101176.91
2023-12-18T05:24:29.362Z,101179.47
2023-12-18T05:26:57.317Z,101172.63
2023-12-18T05:29:25.163Z,101163.22
2023-12-18T05:31:53.623Z,101175.16
2023-12-18T05:34:26.553Z,101179.41
2023-12-18T05:36:56.447Z,101179.34
2023-12-18T05:39:25.343Z,101174.25
2023-12-18T05:41:53.314Z,101181.13
2023-12-18T05:44:21.121Z,101186.28
2023-12-18T05:46:48.947Z,101188.84
2023-12-18T05:49:16.872Z,101184.56
2023-12-18T05:51:46.236Z,101186.34
2023-12-18T05:54:14.253Z,101181.16
2023-12-18T05:56:42.215Z,101179.47
2023-12-18T05:59:10.072Z,101184.56
2023-12-18T06:01:38.075Z,101180.28
2023-12-18T06:04:06.452Z,101187.09
2023-12-18T06:06:34.451Z,101190.50
2023-12-18T06:09:04.409Z,101196.50
2023-12-18T06:11:32.331Z,101206.66
2023-12-18T06:14:00.315Z,101219.50
2023-12-18T06:16:28.099Z,101221.22
2023-12-18T06:18:56.071Z,101215.25
2023-12-18T06:21:24.069Z,101216.19
2023-12-18T06:23:51.872Z,101233.16
2023-12-18T06:26:21.119Z,101231.44
2023-12-18T06:28:48.993Z,101232.31
2023-12-18T06:31:16.974Z,101215.16
2023-12-18T06:33:44.996Z,101233.94
2023-12-18T06:36:17.034Z,101221.16
2023-12-18T06:38:44.967Z,101228.88
2023-12-18T06:41:13.010Z,101228.81
2023-12-18T06:43:42.464Z,101233.94
2023-12-18T06:46:14.143Z,101245.88
2023-12-18T06:48:43.972Z,101223.63
2023-12-18T06:51:12.157Z,101233.84
2023-12-18T06:53:40.194Z,101228.72
2023-12-18T06:56:08.848Z,101231.28
2023-12-18T06:58:36.888Z,101221.91
2023-12-18T07:01:06.464Z,101216.84
2023-12-18T07:03:34.440Z,101224.44
2023-12-18T07:06:03.437Z,101230.34
2023-12-18T07:08:31.370Z,101222.75
2023-12-18T07:10:59.243Z,101204.84
2023-12-18T07:13:27.322Z,101223.63
2023-12-18T07:15:55.128Z,101226.25
2023-12-18T07:18:24.501Z,101204.91
2023-12-18T07:20:52.450Z,101204.91
2023-12-18T07:23:20.417Z,101209.97
2023-12-18T07:25:48.324Z,101221.03
2023-12-18T07:28:16.158Z,101230.44
2023-12-18T07:30:44.087Z,101238.19
2023-12-18T07:33:12.562Z,101234.00
2023-12-18T07:35:42.068Z,101245.97
2023-12-18T07:38:10.096Z,101234.88
2023-12-18T07:40:38.078Z,101250.22
2023-12-18T07:43:06.261Z,101245.13
2023-12-18T07:45:34.165Z,101236.63
2023-12-18T07:48:02.220Z,101245.19
2023-12-18T07:50:30.210Z,101243.47
2023-12-18T07:52:59.523Z,101242.72
2023-12-18T07:55:27.347Z,101244.38
2023-12-18T07:57:55.200Z,101241.91
2023-12-18T08:00:23.125Z,101243.59
2023-12-18T08:02:51.097Z,101245.31
2023-12-18T08:05:19.005Z,101227.47
2023-12-18T08:07:47.940Z,101230.78
2023-12-18T08:10:17.339Z,101228.25
2023-12-18T08:12:45.635Z,101233.38
2023-12-18T08:15:14.793Z,101247.88
2023-12-18T08:17:42.776Z,101239.31
2023-12-18T08:20:12.352Z,101241.00
2023-12-18T08:22:40.647Z,101231.63
2023-12-18T08:25:09.437Z,101235.13
2023-12-18T08:27:38.811Z,101229.06
2023-12-18T08:30:08.187Z,101231.72
2023-12-18T08:32:36.176Z,101230.97
2023-12-18T08:35:04.209Z,101239.50
2023-12-18T08:37:32.373Z,101238.66
2023-12-18T08:40:00.453Z,101231.91
2023-12-18T08:42:29.160Z,101242.94
2023-12-18T08:44:58.676Z,101232.78
2023-12-18T08:47:26.872Z,101229.38
2023-12-18T08:49:54.933Z,101226.06
2023-12-18T08:52:22.897Z,101231.25
2023-12-18T08:54:50.870Z,101223.59
2023-12-18T08:57:18.954Z,101219.38
2023-12-18T08:59:52.513Z,101235.63
2023-12-18T09:02:23.580Z,101237.31
2023-12-18T09:04:56.696Z,101235.69
2023-12-18T09:07:24.831Z,101230.56
2023-12-18T09:09:53.104Z,101229.84
2023-12-18T09:12:21.046Z,101222.25
2023-12-18T09:14:48.992Z,101206.97
2023-12-18T09:17:17.021Z,101243.75
2023-12-18T09:19:46.318Z,101209.69
2023-12-18T09:22:14.351Z,101220.78
2023-12-18T09:24:42.825Z,101226.78
2023-12-18T09:27:10.790Z,101225.91
2023-12-18T09:29:38.796Z,101223.44
2023-12-18T09:32:08.638Z,101220.09
2023-12-18T09:34:36.767Z,101221.06
2023-12-18T09:37:06.214Z,101232.13
2023-12-18T09:39:34.211Z,101205.63
2023-12-18T09:42:03.377Z,101220.13
2023-12-18T09:44:32.747Z,101225.31
2023-12-18T09:47:03.816Z,101217.56
2023-12-18T09:49:32.192Z,101226.16
2023-12-18T09:52:03.142Z,101216.00
2023-12-18T09:54:33.299Z,101217.69
2023-12-18T09:57:03.899Z,101216.03
2023-12-18T09:59:31.752Z,101215.19
2023-12-18T10:02:01.203Z,101206.72
2023-12-18T10:04:29.249Z,101216.94
2023-12-18T10:06:57.138Z,101215.25
2023-12-18T10:09:25.069Z,101210.13
2023-12-18T10:11:54.466Z,101209.34
2023-12-18T10:14:22.430Z,101214.50
2023-12-18T10:16:50.448Z,101216.19
2023-12-18T10:19:18.366Z,101211.06
2023-12-18T10:21:46.426Z,101210.28
2023-12-18T10:24:17.902Z,101195.63
2023-12-18T10:26:48.578Z,101201.56
2023-12-18T10:29:17.866Z,101214.47
2023-12-18T10:31:46.558Z,101203.31
2023-12-18T10:34:14.528Z,101203.38
2023-12-18T10:36:43.419Z,101212.81
2023-12-18T10:39:14.898Z,101209.44
2023-12-18T10:41:46.554Z,101210.38
2023-12-18T10:44:16.472Z,101207.81
2023-12-18T10:46:49.116Z,101203.47
2023-12-18T10:49:18.672Z,101215.41
2023-12-18T10:51:48.430Z,101208.59
2023-12-18T10:54:16.796Z,101212.84
2023-12-18T10:56:46.601Z,101215.25
2023-12-18T10:59:16.784Z,101213.53
2023-12-18T11:01:47.276Z,101207.47
2023-12-18T11:04:15.508Z,101216.00
2023-12-18T11:06:44.800Z,101214.25
2023-12-18T11:09:12.739Z,101209.19
2023-12-18T11:11:41.706Z,101203.16
2023-12-18T11:14:18.303Z,101198.88
2023-12-18T11:17:00.825Z,101204.91
2023-12-18T11:19:38.273Z,101205.69
2023-12-18T11:22:07.410Z,101196.22
2023-12-18T11:24:39.240Z,101202.19
2023-12-18T11:27:08.704Z,101204.75
2023-12-18T11:29:45.466Z,101202.16
2023-12-18T11:32:44.680Z,101204.66
2023-12-18T11:35:13.750Z,101212.31
2023-12-18T11:37:43.883Z,101194.41
2023-12-18T11:40:37.598Z,101195.16
2023-12-18T11:43:06.731Z,101195.16
2023-12-18T11:45:38.539Z,101202.78
2023-12-18T11:48:09.204Z,101204.34
2023-12-18T11:50:38.612Z,101198.34
2023-12-18T11:53:10.220Z,101183.84
2023-12-18T11:55:46.717Z,101204.34
2023-12-18T11:58:17.091Z,101206.09
2023-12-18T12:00:45.053Z,101206.84
2023-12-18T12:03:14.731Z,101209.34
2023-12-18T12:05:43.228Z,101205.09
2023-12-18T12:08:12.023Z,101210.19
2023-12-18T12:10:44.379Z,101214.44
2023-12-18T12:13:20.059Z,101229.75
2023-12-18T12:15:58.693Z,101228.81
2023-12-18T12:18:30.537Z,101231.34
2023-12-18T12:20:58.756Z,101242.41
2023-12-18T12:23:27.043Z,101244.09
2023-12-18T12:25:58.962Z,101249.16
2023-12-18T12:28:29.514Z,101233.66
2023-12-18T12:30:57.724Z,101247.28
2023-12-18T12:33:25.958Z,101237.81
2023-12-18T12:35:55.463Z,101239.53
2023-12-18T12:38:23.380Z,101237.72
2023-12-18T12:40:51.281Z,101232.59
2023-12-18T12:43:19.165Z,101239.31
2023-12-18T12:45:47.168Z,101245.19
2023-12-18T12:48:15.400Z,101247.75
2023-12-18T12:50:44.878Z,101240.16
2023-12-18T12:53:14.647Z,101231.63
2023-12-18T12:55:43.634Z,101238.44
2023-12-18T12:58:12.664Z,101234.97
2023-12-18T13:00:40.881Z,101240.91
2023-12-18T13:03:09.272Z,101233.16
2023-12-18T13:05:38.510Z,101238.28
2023-12-18T13:08:06.688Z,101245.03
2023-12-18T13:10:35.994Z,101238.19
2023-12-18T13:13:04.089Z,101245.00
2023-12-18T13:15:32.003Z,101236.47
2023-12-18T13:18:00.008Z,101234.81
2023-12-18T13:20:29.341Z,101235.72
2023-12-18T13:22:57.928Z,101236.59
2023-12-18T13:25:25.890Z,101240.88
2023-12-18T13:27:55.442Z,101240.00
2023-12-18T13:30:23.685Z,101240.84
2023-12-18T13:32:51.751Z,101242.56
2023-12-18T13:35:20.148Z,101234.88
2023-12-18T13:37:48.189Z,101241.78
2023-12-18T13:40:16.125Z,101240.91
2023-12-18T13:42:44.100Z,101238.31
2023-12-18T13:45:13.565Z,101229.78
2023-12-18T13:47:41.679Z,101241.66
2023-12-18T13:50:10.931Z,101222.16
2023-12-18T13:52:39.999Z,101244.38
2023-12-18T13:55:08.540Z,101243.56
2023-12-18T13:57:43.499Z,101254.69
2023-12-18T14:00:21.141Z,101242.75
2023-12-18T14:02:50.941Z,101239.41
2023-12-18T14:05:20.129Z,101243.63
2023-12-18T14:07:48.475Z,101250.50
2023-12-18T14:10:16.536Z,101250.50
2023-12-18T14:12:44.696Z,101244.56
2023-12-18T14:15:13.093Z,101231.81
2023-12-18T14:17:42.417Z,101230.13
2023-12-18T14:20:11.915Z,101228.44
2023-12-18T14:22:40.024Z,101230.97
2023-12-18T14:25:09.015Z,101234.41
2023-12-18T14:27:37.110Z,101229.28
2023-12-18T14:30:06.056Z,101217.34
2023-12-18T14:32:34.027Z,101229.34
2023-12-18T14:35:03.593Z,101228.53
2023-12-18T14:37:31.608Z,101230.25
2023-12-18T14:40:01.079Z,101235.34
2023-12-18T14:42:29.183Z,101242.16
2023-12-18T14:44:57.046Z,101237.13
2023-12-18T14:47:24.985Z,101246.47
2023-12-18T14:49:52.949Z,101243.88
2023-12-18T14:52:22.266Z,101249.91
2023-12-18T14:54:50.185Z,101259.31
2023-12-18T14:57:18.146Z,101253.34
2023-12-18T14:59:46.062Z,101261.00
2023-12-18T15:02:14.080Z,101254.19
2023-12-18T15:04:42.109Z,101255.03
2023-12-18T15:07:10.241Z,101260.09
2023-12-18T15:09:39.826Z,101266.13
2023-12-18T15:12:08.401Z,101263.44
2023-12-18T15:14:36.311Z,101263.44
2023-12-18T15:17:06.405Z,101268.53
2023-12-18T15:19:36.996Z,101267.66
2023-12-18T15:22:05.834Z,101267.66
2023-12-18T15:24:33.949Z,101270.13
2023-12-18T15:27:03.158Z,101266.72
2023-12-18T15:29:31.718Z,101263.28
2023-12-18T15:31:59.597Z,101268.41
2023-12-18T15:34:27.896Z,101267.56
2023-12-18T15:36:55.899Z,101271.84
2023-12-18T15:39:24.870Z,101268.50
2023-12-18T15:41:53.356Z,101265.94
2023-12-18T15:44:22.705Z,101255.69
2023-12-18T15:46:50.576Z,101260.81
2023-12-18T15:49:19.607Z,101267.69
2023-12-18T15:51:47.750Z,101261.69
2023-12-18T15:54:15.656Z,101260.81
2023-12-18T15:56:45.567Z,101250.56
2023-12-18T15:59:14.187Z,101259.06
2023-12-18T16:01:47.511Z,101253.06
2023-12-18T16:04:15.521Z,101255.59
2023-12-18T16:06:44.746Z,101252.22
2023-12-18T16:09:12.965Z,101264.19
2023-12-18T16:11:41.847Z,101265.00
2023-12-18T16:14:09.820Z,101259.91
2023-12-18T16:16:38.665Z,101262.47
2023-12-18T16:19:07.968Z,101258.97
2023-12-18T16:21:36.106Z,101264.19
2023-12-18T16:24:04.064Z,101262.53
2023-12-18T16:26:35.975Z,101264.19
2023-12-18T16:29:06.423Z,101257.41
2023-12-18T16:31:35.603Z,101257.41
2023-12-18T16:34:03.845Z,101258.19
2023-12-18T16:36:33.439Z,101260.72
2023-12-18T16:39:01.327Z,101254.81
2023-12-18T16:41:32.748Z,101258.19
2023-12-18T16:44:01.289Z,101247.09
2023-12-18T16:46:39.655Z,101253.94
2023-12-18T16:49:11.451Z,101236.88
2023-12-18T16:51:41.234Z,101232.66
2023-12-18T16:54:09.163Z,101240.34
2023-12-18T16:56:37.900Z,101257.41
2023-12-18T16:59:06.233Z,101251.44
2023-12-18T17:01:34.423Z,101240.34
2023-12-18T17:04:02.564Z,101244.63
2023-12-18T17:06:30.748Z,101242.06
2023-12-18T17:09:00.098Z,101238.66
2023-12-18T17:11:28.054Z,101247.19
2023-12-18T17:13:55.930Z,101228.34
2023-12-18T17:16:24.004Z,101237.78
2023-12-18T17:18:51.921Z,101236.94
2023-12-18T17:21:19.939Z,101231.81
2023-12-18T17:23:48.773Z,101235.28
2023-12-18T17:26:18.049Z,101229.34
2023-12-18T17:28:45.965Z,101237.03
2023-12-18T17:31:13.846Z,101215.69
2023-12-18T17:33:41.804Z,101218.19
2023-12-18T17:36:09.851Z,101214.75
2023-12-18T17:38:37.698Z,101208.69
2023-12-18T17:41:05.846Z,101202.69
2023-12-18T17:43:35.371Z,101205.19
2023-12-18T17:46:03.316Z,101200.88
2023-12-18T17:48:31.567Z,101197.44
2023-12-18T17:51:01.833Z,101191.53
2023-12-18T17:53:31.261Z,101191.56
2023-12-18T17:55:59.151Z,101182.97
2023-12-18T17:58:27.012Z,101184.66
2023-12-18T18:00:56.385Z,101188.91
2023-12-18T18:03:24.399Z,101182.94
2023-12-18T18:05:52.431Z,101183.81
2023-12-18T18:08:20.293Z,101182.06
2023-12-18T18:10:49.523Z,101187.19
2023-12-18T18:13:17.521Z,101183.78
2023-12-18T18:15:45.588Z,101187.19
2023-12-18T18:18:14.956Z,101194.88
2023-12-18T18:20:43.618Z,101189.66
2023-12-18T18:23:11.551Z,101199.06
2023-12-18T18:25:40.291Z,101183.72
2023-12-18T18:28:09.067Z,101171.69
2023-12-18T18:30:37.358Z,101183.63
2023-12-18T18:33:07.725Z,101177.63
2023-12-18T18:35:38.675Z,101182.75
2023-12-18T18:38:06.633Z,101175.94
2023-12-18T18:40:34.716Z,101193.00
2023-12-18T18:43:02.531Z,101193.84
2023-12-18T18:45:29.558Z,101192.91
2023-12-18T18:47:57.493Z,101186.94
2023-12-18T18:50:25.470Z,101189.56
2023-12-18T18:52:54.652Z,101186.13
2023-12-18T18:55:22.500Z,101181.81
2023-12-18T18:57:50.604Z,101185.31
2023-12-18T19:00:19.699Z,101184.47
2023-12-18T19:02:48.071Z,101185.38
2023-12-18T19:05:17.433Z,101184.56
2023-12-18T19:07:46.573Z,101194.03
2023-12-18T19:10:16.004Z,101181.13
2023-12-18T19:12:44.966Z,101178.59
2023-12-18T19:15:13.330Z,101178.66
2023-12-18T19:17:43.057Z,101165.81
2023-12-18T19:20:11.919Z,101168.38
2023-12-18T19:22:40.528Z,101168.38
2023-12-18T19:25:09.091Z,101176.88
2023-12-18T19:27:40.098Z,101171.75
2023-12-18T19:30:09.480Z,101168.34
2023-12-18T19:32:37.679Z,101161.50
2023-12-18T19:35:06.420Z,101167.41
2023-12-18T19:37:34.319Z,101160.59
2023-12-18T19:40:04.590Z,101157.19
2023-12-18T19:42:32.951Z,101158.09
2023-12-18T19:45:02.241Z,101151.22
2023-12-18T19:47:30.075Z,101141.75
2023-12-18T19:49:58.080Z,101140.09
2023-12-18T19:52:26.011Z,101138.44
2023-12-18T19:54:54.255Z,101135.03
2023-12-18T19:57:22.240Z,101129.03
2023-12-18T19:59:50.211Z,101127.31
2023-12-18T20:02:19.421Z,101113.69
2023-12-18T20:04:47.202Z,101117.94
2023-12-18T20:07:15.195Z,101111.91
2023-12-18T20:09:43.831Z,101117.06
2023-12-18T20:12:11.740Z,101116.16
2023-12-18T20:14:39.606Z,101118.69
2023-12-18T20:17:07.702Z,101106.63
2023-12-18T20:19:37.018Z,101112.53
2023-12-18T20:22:05.476Z,101114.91
2023-12-18T20:24:33.672Z,101112.22
2023-12-18T20:27:01.814Z,101107.81
2023-12-18T20:29:30.877Z,101098.41
2023-12-18T20:31:59.090Z,101094.06
2023-12-18T20:34:27.022Z,101099.28
2023-12-18T20:36:56.267Z,101098.53
2023-12-18T20:39:24.267Z,101098.53
2023-12-18T20:41:52.188Z,101089.91
2023-12-18T20:44:20.056Z,101095.81
2023-12-18T20:46:47.890Z,101083.00
2023-12-18T20:49:15.799Z,101074.47
2023-12-18T20:51:44.524Z,101077.00
2023-12-18T20:54:13.805Z,101070.97
2023-12-18T20:56:41.652Z,101063.19
2023-12-18T20:59:09.088Z,101050.31
2023-12-18T21:01:37.255Z,101066.53
2023-12-18T21:04:05.406Z,101057.06
2023-12-18T21:06:33.805Z,101051.00
2023-12-18T21:09:01.774Z,101049.31
2023-12-18T21:11:31.126Z,101046.75
2023-12-18T21:13:59.096Z,101049.31
2023-12-18T21:16:26.988Z,101045.06
2023-12-18T21:18:54.921Z,101034.81
2023-12-18T21:21:23.117Z,101025.50
2023-12-18T21:23:51.026Z,101028.88
2023-12-18T21:26:18.954Z,101022.91
2023-12-18T21:28:48.161Z,101019.47
2023-12-18T21:31:16.146Z,101011.03
2023-12-18T21:33:44.177Z,101009.34
2023-12-18T21:36:14.409Z,101002.53
2023-12-18T21:38:42.428Z,101016.28
2023-12-18T21:41:10.341Z,101015.41
2023-12-18T21:43:38.425Z,101012.84
2023-12-18T21:46:07.689Z,101013.78
2023-12-18T21:48:36.017Z,101011.25
2023-12-18T21:51:04.057Z,101001.88
2023-12-18T21:53:31.963Z,101001.03
2023-12-18T21:55:59.901Z,101001.00
2023-12-18T21:58:27.797Z,100997.56
2023-12-18T22:00:55.864Z,100993.28
2023-12-18T22:03:25.445Z,101007.00
2023-12-18T22:05:54.421Z,100985.66
2023-12-18T22:08:22.415Z,100987.34
2023-12-18T22:10:50.490Z,100977.94
2023-12-18T22:13:18.513Z,100988.22
2023-12-18T22:15:46.433Z,100979.72
2023-12-18T22:18:14.471Z,100982.25
2023-12-18T22:20:44.884Z,100978.00
2023-12-18T22:23:14.079Z,100970.25
2023-12-18T22:25:42.043Z,100965.13
2023-12-18T22:28:12.728Z,100978.00
2023-12-18T22:30:40.624Z,100964.34
2023-12-18T22:33:08.643Z,100960.13
2023-12-18T22:35:36.611Z,100954.16
2023-12-18T22:38:06.746Z,100949.06
2023-12-18T22:40:35.004Z,100945.63
2023-12-18T22:43:03.137Z,100943.91
2023-12-18T22:45:31.051Z,100928.59
2023-12-18T22:47:59.108Z,100912.47
2023-12-18T22:50:28.611Z,100916.72
2023-12-18T22:52:56.725Z,100905.72
2023-12-18T22:55:28.293Z,100905.75
2023-12-18T22:57:56.474Z,100893.00
2023-12-18T23:00:29.623Z,100883.66
2023-12-18T23:02:57.700Z,100889.63
2023-12-18T23:05:25.794Z,100896.50
2023-12-18T23:07:54.132Z,100905.84
2023-12-18T23:10:22.083Z,100906.66
2023-12-18T23:12:51.524Z,100898.22
2023-12-18T23:15:20.322Z,100910.22
2023-12-18T23:17:48.289Z,100912.81
2023-12-18T23:20:16.222Z,100894.91
2023-12-18T23:22:44.513Z,100895.75
2023-12-18T23:25:16.301Z,100897.53
2023-12-18T23:27:44.574Z,100883.81
2023-12-18T23:30:14.221Z,100881.31
2023-12-18T23:32:42.625Z,100870.28
2023-12-18T23:35:11.031Z,100866.91
2023-12-18T23:37:39.395Z,100870.31
2023-12-18T23:40:08.311Z,100866.00
2023-12-18T23:42:36.248Z,100872.88
2023-12-18T23:45:04.754Z,100880.56
2023-12-18T23:47:34.032Z,100873.69
2023-12-18T23:50:02.138Z,100865.09
2023-12-18T23:52:29.974Z,100854.00
2023-12-18T23:54:57.949Z,100856.50
2023-12-18T23:57:25.809Z,100847.16
2023-12-18T23:59:53.729Z,100852.19
